sensor_id;sensor_type;location;lat;lon;timestamp;P1;durP1;ratioP1;P2;durP2;ratioP2
44169;SDS011;29836;52.286;9.576;2023-04-25T00:00:31;4.25;;;2.60;;
44169;SDS011;29836;52.286;9.576;2023-04-25T00:02:57;10.65;;;4.03;;
44169;SDS011;29836;52.286;9.576;2023-04-25T00:05:24;7.07;;;2.78;;
44169;SDS011;29836;52.286;9.576;2023-04-25T00:07:49;12.10;;;3.35;;
44169;SDS011;29836;52.286;9.576;2023-04-25T00:10:15;9.02;;;3.72;;
44169;SDS011;29836;52.286;9.576;2023-04-25T00:12:41;14.07;;;3.47;;
44169;SDS011;29836;52.286;9.576;2023-04-25T00:15:07;8.30;;;3.67;;
44169;SDS011;29836;52.286;9.576;2023-04-25T00:17:32;12.25;;;3.47;;
44169;SDS011;29836;52.286;9.576;2023-04-25T00:19:59;12.43;;;4.00;;
44169;SDS011;29836;52.286;9.576;2023-04-25T00:22:25;9.85;;;3.97;;
44169;SDS011;29836;52.286;9.576;2023-04-25T00:24:51;9.52;;;3.22;;
44169;SDS011;29836;52.286;9.576;2023-04-25T00:27:18;8.63;;;3.30;;
44169;SDS011;29836;52.286;9.576;2023-04-25T00:29:44;7.20;;;3.15;;
44169;SDS011;29836;52.286;9.576;2023-04-25T00:32:09;15.25;;;4.03;;
44169;SDS011;29836;52.286;9.576;2023-04-25T00:34:35;11.52;;;3.53;;
44169;SDS011;29836;52.286;9.576;2023-04-25T00:37:00;9.65;;;3.85;;
44169;SDS011;29836;52.286;9.576;2023-04-25T00:39:27;6.60;;;3.50;;
44169;SDS011;29836;52.286;9.576;2023-04-25T00:41:53;7.63;;;3.50;;
44169;SDS011;29836;52.286;9.576;2023-04-25T00:44:19;8.57;;;3.75;;
44169;SDS011;29836;52.286;9.576;2023-04-25T00:46:46;10.23;;;3.72;;
44169;SDS011;29836;52.286;9.576;2023-04-25T00:49:13;6.28;;;3.63;;
44169;SDS011;29836;52.286;9.576;2023-04-25T00:51:41;9.50;;;4.30;;
44169;SDS011;29836;52.286;9.576;2023-04-25T00:54:09;11.00;;;5.03;;
44169;SDS011;29836;52.286;9.576;2023-04-25T00:56:39;14.52;;;4.25;;
44169;SDS011;29836;52.286;9.576;2023-04-25T00:59:05;9.00;;;3.83;;
44169;SDS011;29836;52.286;9.576;2023-04-25T01:01:30;8.27;;;3.97;;
44169;SDS011;29836;52.286;9.576;2023-04-25T01:03:56;10.98;;;3.30;;
44169;SDS011;29836;52.286;9.576;2023-04-25T01:06:24;10.88;;;4.00;;
44169;SDS011;29836;52.286;9.576;2023-04-25T01:08:49;9.35;;;3.50;;
44169;SDS011;29836;52.286;9.576;2023-04-25T01:11:16;9.68;;;3.70;;
44169;SDS011;29836;52.286;9.576;2023-04-25T01:13:42;7.25;;;3.25;;
44169;SDS011;29836;52.286;9.576;2023-04-25T01:16:08;12.65;;;4.65;;
44169;SDS011;29836;52.286;9.576;2023-04-25T01:18:33;11.27;;;3.72;;
44169;SDS011;29836;52.286;9.576;2023-04-25T01:21:09;19.95;;;5.28;;
44169;SDS011;29836;52.286;9.576;2023-04-25T01:23:35;9.27;;;3.67;;
44169;SDS011;29836;52.286;9.576;2023-04-25T01:26:02;10.25;;;3.95;;
44169;SDS011;29836;52.286;9.576;2023-04-25T01:28:28;12.18;;;3.83;;
44169;SDS011;29836;52.286;9.576;2023-04-25T01:30:54;11.35;;;3.85;;
44169;SDS011;29836;52.286;9.576;2023-04-25T01:33:21;20.50;;;5.60;;
44169;SDS011;29836;52.286;9.576;2023-04-25T01:35:47;11.52;;;3.78;;
44169;SDS011;29836;52.286;9.576;2023-04-25T01:38:13;7.85;;;4.03;;
44169;SDS011;29836;52.286;9.576;2023-04-25T01:40:40;11.00;;;4.00;;
44169;SDS011;29836;52.286;9.576;2023-04-25T01:43:06;8.70;;;3.80;;
44169;SDS011;29836;52.286;9.576;2023-04-25T01:45:37;10.00;;;4.00;;
44169;SDS011;29836;52.286;9.576;2023-04-25T01:48:10;11.65;;;3.42;;
44169;SDS011;29836;52.286;9.576;2023-04-25T01:50:38;16.00;;;4.70;;
44169;SDS011;29836;52.286;9.576;2023-04-25T01:53:04;7.53;;;4.03;;
44169;SDS011;29836;52.286;9.576;2023-04-25T01:55:30;5.95;;;3.38;;
44169;SDS011;29836;52.286;9.576;2023-04-25T01:57:55;11.60;;;3.97;;
44169;SDS011;29836;52.286;9.576;2023-04-25T02:00:21;8.27;;;4.05;;
44169;SDS011;29836;52.286;9.576;2023-04-25T02:02:47;9.40;;;4.13;;
44169;SDS011;29836;52.286;9.576;2023-04-25T02:05:13;8.70;;;3.58;;
44169;SDS011;29836;52.286;9.576;2023-04-25T02:07:38;11.90;;;4.50;;
44169;SDS011;29836;52.286;9.576;2023-04-25T02:10:04;7.40;;;3.58;;
44169;SDS011;29836;52.286;9.576;2023-04-25T02:12:30;11.55;;;3.65;;
44169;SDS011;29836;52.286;9.576;2023-04-25T02:14:56;11.13;;;4.22;;
44169;SDS011;29836;52.286;9.576;2023-04-25T02:17:22;6.82;;;3.88;;
44169;SDS011;29836;52.286;9.576;2023-04-25T02:19:47;8.60;;;3.55;;
44169;SDS011;29836;52.286;9.576;2023-04-25T02:22:13;6.88;;;2.72;;
44169;SDS011;29836;52.286;9.576;2023-04-25T02:24:39;6.63;;;3.20;;
44169;SDS011;29836;52.286;9.576;2023-04-25T02:27:04;9.25;;;3.97;;
44169;SDS011;29836;52.286;9.576;2023-04-25T02:29:30;7.05;;;2.92;;
44169;SDS011;29836;52.286;9.576;2023-04-25T02:31:55;7.05;;;3.40;;
44169;SDS011;29836;52.286;9.576;2023-04-25T02:34:21;13.13;;;3.75;;
44169;SDS011;29836;52.286;9.576;2023-04-25T02:36:47;15.15;;;3.60;;
44169;SDS011;29836;52.286;9.576;2023-04-25T02:39:13;11.88;;;3.35;;
44169;SDS011;29836;52.286;9.576;2023-04-25T02:41:39;8.70;;;3.00;;
44169;SDS011;29836;52.286;9.576;2023-04-25T02:44:04;9.10;;;3.67;;
44169;SDS011;29836;52.286;9.576;2023-04-25T02:46:30;12.10;;;3.72;;
44169;SDS011;29836;52.286;9.576;2023-04-25T02:48:55;12.18;;;3.30;;
44169;SDS011;29836;52.286;9.576;2023-04-25T02:51:21;11.35;;;3.28;;
44169;SDS011;29836;52.286;9.576;2023-04-25T02:53:46;11.90;;;3.13;;
44169;SDS011;29836;52.286;9.576;2023-04-25T02:56:11;13.25;;;3.75;;
44169;SDS011;29836;52.286;9.576;2023-04-25T02:58:37;12.32;;;2.88;;
44169;SDS011;29836;52.286;9.576;2023-04-25T03:01:02;14.02;;;3.25;;
44169;SDS011;29836;52.286;9.576;2023-04-25T03:03:28;9.38;;;3.00;;
44169;SDS011;29836;52.286;9.576;2023-04-25T03:05:53;8.65;;;3.28;;
44169;SDS011;29836;52.286;9.576;2023-04-25T03:08:19;6.32;;;2.80;;
44169;SDS011;29836;52.286;9.576;2023-04-25T03:10:44;11.52;;;3.65;;
44169;SDS011;29836;52.286;9.576;2023-04-25T03:13:10;15.85;;;3.25;;
44169;SDS011;29836;52.286;9.576;2023-04-25T03:15:36;9.52;;;3.20;;
44169;SDS011;29836;52.286;9.576;2023-04-25T03:18:02;14.50;;;3.53;;
44169;SDS011;29836;52.286;9.576;2023-04-25T03:20:28;13.52;;;3.80;;
44169;SDS011;29836;52.286;9.576;2023-04-25T03:22:54;8.15;;;3.72;;
44169;SDS011;29836;52.286;9.576;2023-04-25T03:25:19;10.10;;;3.60;;
44169;SDS011;29836;52.286;9.576;2023-04-25T03:27:45;10.20;;;3.03;;
44169;SDS011;29836;52.286;9.576;2023-04-25T03:30:11;10.43;;;3.40;;
44169;SDS011;29836;52.286;9.576;2023-04-25T03:32:37;11.13;;;3.33;;
44169;SDS011;29836;52.286;9.576;2023-04-25T03:35:02;15.75;;;3.53;;
44169;SDS011;29836;52.286;9.576;2023-04-25T03:37:28;16.08;;;3.63;;
44169;SDS011;29836;52.286;9.576;2023-04-25T03:39:54;13.10;;;3.72;;
44169;SDS011;29836;52.286;9.576;2023-04-25T03:42:20;16.25;;;3.60;;
44169;SDS011;29836;52.286;9.576;2023-04-25T03:44:47;23.73;;;4.57;;
44169;SDS011;29836;52.286;9.576;2023-04-25T03:47:13;10.98;;;3.13;;
44169;SDS011;29836;52.286;9.576;2023-04-25T03:49:39;14.10;;;4.45;;
44169;SDS011;29836;52.286;9.576;2023-04-25T03:52:04;13.77;;;3.97;;
44169;SDS011;29836;52.286;9.576;2023-04-25T03:54:29;15.80;;;4.22;;
44169;SDS011;29836;52.286;9.576;2023-04-25T03:56:56;12.73;;;3.60;;
44169;SDS011;29836;52.286;9.576;2023-04-25T03:59:21;9.60;;;3.00;;
44169;SDS011;29836;52.286;9.576;2023-04-25T04:01:47;8.93;;;2.95;;
44169;SDS011;29836;52.286;9.576;2023-04-25T04:04:12;11.68;;;3.25;;
44169;SDS011;29836;52.286;9.576;2023-04-25T04:06:38;9.32;;;2.97;;
44169;SDS011;29836;52.286;9.576;2023-04-25T04:09:04;10.90;;;3.28;;
44169;SDS011;29836;52.286;9.576;2023-04-25T04:11:33;11.30;;;3.15;;
44169;SDS011;29836;52.286;9.576;2023-04-25T04:14:01;10.32;;;3.33;;
44169;SDS011;29836;52.286;9.576;2023-04-25T04:16:27;10.18;;;2.30;;
44169;SDS011;29836;52.286;9.576;2023-04-25T04:18:52;11.90;;;3.33;;
44169;SDS011;29836;52.286;9.576;2023-04-25T04:21:18;16.20;;;3.13;;
44169;SDS011;29836;52.286;9.576;2023-04-25T04:23:43;14.88;;;3.03;;
44169;SDS011;29836;52.286;9.576;2023-04-25T04:26:09;17.35;;;3.15;;
44169;SDS011;29836;52.286;9.576;2023-04-25T04:28:36;9.00;;;3.65;;
44169;SDS011;29836;52.286;9.576;2023-04-25T04:31:02;8.70;;;2.53;;
44169;SDS011;29836;52.286;9.576;2023-04-25T04:33:28;11.68;;;3.85;;
44169;SDS011;29836;52.286;9.576;2023-04-25T04:35:55;12.73;;;3.05;;
44169;SDS011;29836;52.286;9.576;2023-04-25T04:38:21;12.73;;;3.25;;
44169;SDS011;29836;52.286;9.576;2023-04-25T04:40:46;8.48;;;2.72;;
44169;SDS011;29836;52.286;9.576;2023-04-25T04:43:12;14.55;;;3.33;;
44169;SDS011;29836;52.286;9.576;2023-04-25T04:45:38;17.42;;;3.90;;
44169;SDS011;29836;52.286;9.576;2023-04-25T04:48:05;20.20;;;3.35;;
44169;SDS011;29836;52.286;9.576;2023-04-25T04:50:31;14.88;;;3.25;;
44169;SDS011;29836;52.286;9.576;2023-04-25T04:52:57;13.60;;;3.33;;
44169;SDS011;29836;52.286;9.576;2023-04-25T04:55:23;15.73;;;3.75;;
44169;SDS011;29836;52.286;9.576;2023-04-25T04:57:48;10.90;;;2.67;;
44169;SDS011;29836;52.286;9.576;2023-04-25T05:00:14;14.68;;;2.72;;
44169;SDS011;29836;52.286;9.576;2023-04-25T05:02:40;16.05;;;3.40;;
44169;SDS011;29836;52.286;9.576;2023-04-25T05:05:06;15.48;;;3.72;;
44169;SDS011;29836;52.286;9.576;2023-04-25T05:07:31;18.30;;;3.03;;
44169;SDS011;29836;52.286;9.576;2023-04-25T05:09:57;9.32;;;3.30;;
44169;SDS011;29836;52.286;9.576;2023-04-25T05:12:22;19.38;;;3.33;;
44169;SDS011;29836;52.286;9.576;2023-04-25T05:14:48;9.73;;;3.00;;
44169;SDS011;29836;52.286;9.576;2023-04-25T05:17:13;7.97;;;2.83;;
44169;SDS011;29836;52.286;9.576;2023-04-25T05:19:39;14.23;;;3.25;;
44169;SDS011;29836;52.286;9.576;2023-04-25T05:22:04;15.07;;;3.70;;
44169;SDS011;29836;52.286;9.576;2023-04-25T05:24:30;12.40;;;3.17;;
44169;SDS011;29836;52.286;9.576;2023-04-25T05:26:55;10.57;;;2.30;;
44169;SDS011;29836;52.286;9.576;2023-04-25T05:29:21;13.55;;;2.40;;
44169;SDS011;29836;52.286;9.576;2023-04-25T05:31:46;8.02;;;2.55;;
44169;SDS011;29836;52.286;9.576;2023-04-25T05:34:13;10.88;;;2.63;;
44169;SDS011;29836;52.286;9.576;2023-04-25T05:36:38;15.02;;;4.05;;
44169;SDS011;29836;52.286;9.576;2023-04-25T05:39:04;13.15;;;3.47;;
44169;SDS011;29836;52.286;9.576;2023-04-25T05:41:30;8.43;;;2.50;;
44169;SDS011;29836;52.286;9.576;2023-04-25T05:43:56;8.25;;;2.20;;
44169;SDS011;29836;52.286;9.576;2023-04-25T05:46:21;12.75;;;2.60;;
44169;SDS011;29836;52.286;9.576;2023-04-25T05:48:47;11.60;;;2.92;;
44169;SDS011;29836;52.286;9.576;2023-04-25T05:51:12;9.80;;;2.08;;
44169;SDS011;29836;52.286;9.576;2023-04-25T05:53:38;15.63;;;2.88;;
44169;SDS011;29836;52.286;9.576;2023-04-25T05:56:03;4.65;;;2.45;;
44169;SDS011;29836;52.286;9.576;2023-04-25T05:58:29;11.05;;;2.63;;
44169;SDS011;29836;52.286;9.576;2023-04-25T06:00:54;12.32;;;2.78;;
44169;SDS011;29836;52.286;9.576;2023-04-25T06:03:20;8.57;;;2.28;;
44169;SDS011;29836;52.286;9.576;2023-04-25T06:05:46;10.15;;;2.72;;
44169;SDS011;29836;52.286;9.576;2023-04-25T06:08:11;14.35;;;2.88;;
44169;SDS011;29836;52.286;9.576;2023-04-25T06:10:36;10.20;;;2.17;;
44169;SDS011;29836;52.286;9.576;2023-04-25T06:13:03;11.73;;;2.30;;
44169;SDS011;29836;52.286;9.576;2023-04-25T06:15:29;9.02;;;3.08;;
44169;SDS011;29836;52.286;9.576;2023-04-25T06:17:57;9.13;;;2.10;;
44169;SDS011;29836;52.286;9.576;2023-04-25T06:20:23;14.55;;;2.53;;
44169;SDS011;29836;52.286;9.576;2023-04-25T06:22:49;7.78;;;2.30;;
44169;SDS011;29836;52.286;9.576;2023-04-25T06:25:16;13.60;;;2.53;;
44169;SDS011;29836;52.286;9.576;2023-04-25T06:27:42;8.52;;;2.15;;
44169;SDS011;29836;52.286;9.576;2023-04-25T06:30:08;11.50;;;2.50;;
44169;SDS011;29836;52.286;9.576;2023-04-25T06:32:34;6.32;;;1.88;;
44169;SDS011;29836;52.286;9.576;2023-04-25T06:35:00;20.13;;;2.85;;
44169;SDS011;29836;52.286;9.576;2023-04-25T06:37:26;11.45;;;2.05;;
44169;SDS011;29836;52.286;9.576;2023-04-25T06:39:51;8.02;;;2.35;;
44169;SDS011;29836;52.286;9.576;2023-04-25T06:42:17;10.32;;;2.17;;
44169;SDS011;29836;52.286;9.576;2023-04-25T06:44:42;8.55;;;2.17;;
44169;SDS011;29836;52.286;9.576;2023-04-25T06:47:08;7.20;;;2.55;;
44169;SDS011;29836;52.286;9.576;2023-04-25T06:49:33;13.73;;;2.45;;
44169;SDS011;29836;52.286;9.576;2023-04-25T06:51:59;7.95;;;2.63;;
44169;SDS011;29836;52.286;9.576;2023-04-25T06:54:24;9.95;;;2.25;;
44169;SDS011;29836;52.286;9.576;2023-04-25T06:56:52;20.10;;;2.17;;
44169;SDS011;29836;52.286;9.576;2023-04-25T06:59:18;4.53;;;2.22;;
44169;SDS011;29836;52.286;9.576;2023-04-25T07:01:43;5.38;;;2.10;;
44169;SDS011;29836;52.286;9.576;2023-04-25T07:04:09;6.45;;;1.80;;
44169;SDS011;29836;52.286;9.576;2023-04-25T07:06:34;12.25;;;2.63;;
44169;SDS011;29836;52.286;9.576;2023-04-25T07:09:03;4.90;;;1.90;;
44169;SDS011;29836;52.286;9.576;2023-04-25T07:11:29;5.57;;;1.67;;
44169;SDS011;29836;52.286;9.576;2023-04-25T07:13:55;11.65;;;2.17;;
44169;SDS011;29836;52.286;9.576;2023-04-25T07:16:20;8.07;;;1.75;;
44169;SDS011;29836;52.286;9.576;2023-04-25T07:18:45;4.75;;;2.03;;
44169;SDS011;29836;52.286;9.576;2023-04-25T07:21:11;10.55;;;2.13;;
44169;SDS011;29836;52.286;9.576;2023-04-25T07:23:36;7.65;;;1.83;;
44169;SDS011;29836;52.286;9.576;2023-04-25T07:26:05;7.72;;;2.55;;
44169;SDS011;29836;52.286;9.576;2023-04-25T07:28:31;7.32;;;2.10;;
44169;SDS011;29836;52.286;9.576;2023-04-25T07:30:56;12.63;;;1.92;;
44169;SDS011;29836;52.286;9.576;2023-04-25T07:33:23;9.43;;;2.08;;
44169;SDS011;29836;52.286;9.576;2023-04-25T07:35:48;14.98;;;2.00;;
44169;SDS011;29836;52.286;9.576;2023-04-25T07:38:14;6.63;;;2.10;;
44169;SDS011;29836;52.286;9.576;2023-04-25T07:40:39;8.63;;;1.80;;
44169;SDS011;29836;52.286;9.576;2023-04-25T07:43:05;4.60;;;1.85;;
44169;SDS011;29836;52.286;9.576;2023-04-25T07:45:30;10.60;;;2.33;;
44169;SDS011;29836;52.286;9.576;2023-04-25T07:47:56;5.63;;;1.40;;
44169;SDS011;29836;52.286;9.576;2023-04-25T07:50:21;12.23;;;2.28;;
44169;SDS011;29836;52.286;9.576;2023-04-25T07:52:47;6.60;;;2.03;;
44169;SDS011;29836;52.286;9.576;2023-04-25T07:55:12;11.40;;;2.30;;
44169;SDS011;29836;52.286;9.576;2023-04-25T07:57:38;7.82;;;1.63;;
44169;SDS011;29836;52.286;9.576;2023-04-25T08:00:03;6.35;;;1.83;;
44169;SDS011;29836;52.286;9.576;2023-04-25T08:02:33;7.57;;;1.60;;
44169;SDS011;29836;52.286;9.576;2023-04-25T08:04:59;13.73;;;2.20;;
44169;SDS011;29836;52.286;9.576;2023-04-25T08:07:24;9.90;;;1.77;;
44169;SDS011;29836;52.286;9.576;2023-04-25T08:09:50;7.60;;;1.40;;
44169;SDS011;29836;52.286;9.576;2023-04-25T08:12:15;6.88;;;1.50;;
44169;SDS011;29836;52.286;9.576;2023-04-25T08:14:41;7.18;;;1.52;;
44169;SDS011;29836;52.286;9.576;2023-04-25T08:17:06;7.55;;;1.42;;
44169;SDS011;29836;52.286;9.576;2023-04-25T08:19:32;10.57;;;1.95;;
44169;SDS011;29836;52.286;9.576;2023-04-25T08:21:57;4.93;;;1.25;;
44169;SDS011;29836;52.286;9.576;2023-04-25T08:24:23;4.80;;;1.58;;
44169;SDS011;29836;52.286;9.576;2023-04-25T08:26:48;7.30;;;1.67;;
44169;SDS011;29836;52.286;9.576;2023-04-25T08:29:14;6.72;;;1.67;;
44169;SDS011;29836;52.286;9.576;2023-04-25T08:31:40;10.60;;;1.88;;
44169;SDS011;29836;52.286;9.576;2023-04-25T08:34:05;3.13;;;1.42;;
44169;SDS011;29836;52.286;9.576;2023-04-25T08:36:31;8.77;;;1.75;;
44169;SDS011;29836;52.286;9.576;2023-04-25T08:38:57;3.10;;;1.10;;
44169;SDS011;29836;52.286;9.576;2023-04-25T08:41:23;6.70;;;1.33;;
44169;SDS011;29836;52.286;9.576;2023-04-25T08:43:50;7.60;;;1.92;;
44169;SDS011;29836;52.286;9.576;2023-04-25T08:46:17;2.33;;;1.23;;
44169;SDS011;29836;52.286;9.576;2023-04-25T08:48:44;3.80;;;1.48;;
44169;SDS011;29836;52.286;9.576;2023-04-25T08:51:10;4.80;;;1.25;;
44169;SDS011;29836;52.286;9.576;2023-04-25T08:53:52;7.32;;;1.50;;
44169;SDS011;29836;52.286;9.576;2023-04-25T08:56:18;8.02;;;1.73;;
44169;SDS011;29836;52.286;9.576;2023-04-25T08:58:47;6.88;;;1.65;;
44169;SDS011;29836;52.286;9.576;2023-04-25T09:01:15;6.25;;;1.50;;
44169;SDS011;29836;52.286;9.576;2023-04-25T09:03:40;4.25;;;1.35;;
44169;SDS011;29836;52.286;9.576;2023-04-25T09:06:06;3.63;;;1.35;;
44169;SDS011;29836;52.286;9.576;2023-04-25T09:08:36;2.97;;;1.23;;
44169;SDS011;29836;52.286;9.576;2023-04-25T09:11:02;2.78;;;1.33;;
44169;SDS011;29836;52.286;9.576;2023-04-25T09:13:28;2.80;;;1.20;;
44169;SDS011;29836;52.286;9.576;2023-04-25T09:15:54;2.05;;;0.90;;
44169;SDS011;29836;52.286;9.576;2023-04-25T09:18:22;3.25;;;1.15;;
44169;SDS011;29836;52.286;9.576;2023-04-25T09:20:51;3.53;;;1.38;;
44169;SDS011;29836;52.286;9.576;2023-04-25T09:23:18;2.47;;;1.20;;
44169;SDS011;29836;52.286;9.576;2023-04-25T09:25:46;2.47;;;1.50;;
44169;SDS011;29836;52.286;9.576;2023-04-25T09:28:13;3.70;;;1.20;;
44169;SDS011;29836;52.286;9.576;2023-04-25T09:30:38;2.90;;;1.02;;
44169;SDS011;29836;52.286;9.576;2023-04-25T09:33:08;3.83;;;0.90;;
44169;SDS011;29836;52.286;9.576;2023-04-25T09:38:07;5.50;;;1.23;;
44169;SDS011;29836;52.286;9.576;2023-04-25T09:40:33;6.40;;;0.98;;
44169;SDS011;29836;52.286;9.576;2023-04-25T09:42:59;5.10;;;1.27;;
44169;SDS011;29836;52.286;9.576;2023-04-25T09:45:25;6.95;;;1.50;;
44169;SDS011;29836;52.286;9.576;2023-04-25T09:47:52;2.08;;;0.88;;
44169;SDS011;29836;52.286;9.576;2023-04-25T09:50:21;5.80;;;1.10;;
44169;SDS011;29836;52.286;9.576;2023-04-25T09:53:02;3.88;;;1.20;;
44169;SDS011;29836;52.286;9.576;2023-04-25T09:55:29;5.35;;;1.00;;
44169;SDS011;29836;52.286;9.576;2023-04-25T09:57:55;2.03;;;0.90;;
44169;SDS011;29836;52.286;9.576;2023-04-25T10:00:27;6.72;;;1.33;;
44169;SDS011;29836;52.286;9.576;2023-04-25T10:02:53;4.55;;;1.10;;
44169;SDS011;29836;52.286;9.576;2023-04-25T10:05:20;6.75;;;1.20;;
44169;SDS011;29836;52.286;9.576;2023-04-25T10:07:46;5.47;;;1.35;;
44169;SDS011;29836;52.286;9.576;2023-04-25T10:10:12;5.35;;;1.42;;
44169;SDS011;29836;52.286;9.576;2023-04-25T10:12:38;3.80;;;1.25;;
44169;SDS011;29836;52.286;9.576;2023-04-25T10:15:05;5.43;;;1.13;;
44169;SDS011;29836;52.286;9.576;2023-04-25T10:17:33;9.30;;;1.23;;
44169;SDS011;29836;52.286;9.576;2023-04-25T10:20:01;8.57;;;1.45;;
44169;SDS011;29836;52.286;9.576;2023-04-25T10:22:43;4.32;;;1.15;;
44169;SDS011;29836;52.286;9.576;2023-04-25T10:25:11;3.05;;;1.70;;
44169;SDS011;29836;52.286;9.576;2023-04-25T10:27:38;3.60;;;0.98;;
44169;SDS011;29836;52.286;9.576;2023-04-25T10:30:08;4.72;;;1.42;;
44169;SDS011;29836;52.286;9.576;2023-04-25T10:32:36;4.53;;;1.13;;
44169;SDS011;29836;52.286;9.576;2023-04-25T10:35:12;4.72;;;1.52;;
44169;SDS011;29836;52.286;9.576;2023-04-25T10:38:02;7.65;;;1.30;;
44169;SDS011;29836;52.286;9.576;2023-04-25T10:40:30;6.50;;;1.23;;
44169;SDS011;29836;52.286;9.576;2023-04-25T10:46:12;2.80;;;1.00;;
44169;SDS011;29836;52.286;9.576;2023-04-25T10:48:57;5.82;;;1.23;;
44169;SDS011;29836;52.286;9.576;2023-04-25T10:51:25;4.78;;;1.05;;
44169;SDS011;29836;52.286;9.576;2023-04-25T10:54:00;3.88;;;0.93;;
44169;SDS011;29836;52.286;9.576;2023-04-25T10:56:28;3.33;;;0.98;;
44169;SDS011;29836;52.286;9.576;2023-04-25T11:01:36;5.78;;;1.25;;
44169;SDS011;29836;52.286;9.576;2023-04-25T11:04:03;5.50;;;1.55;;
44169;SDS011;29836;52.286;9.576;2023-04-25T11:06:32;2.78;;;1.00;;
44169;SDS011;29836;52.286;9.576;2023-04-25T11:09:11;5.80;;;1.50;;
44169;SDS011;29836;52.286;9.576;2023-04-25T11:11:38;5.80;;;1.20;;
44169;SDS011;29836;52.286;9.576;2023-04-25T11:14:04;3.05;;;1.35;;
44169;SDS011;29836;52.286;9.576;2023-04-25T11:16:29;6.85;;;1.90;;
44169;SDS011;29836;52.286;9.576;2023-04-25T11:18:56;2.50;;;1.33;;
44169;SDS011;29836;52.286;9.576;2023-04-25T11:21:22;6.22;;;1.30;;
44169;SDS011;29836;52.286;9.576;2023-04-25T11:23:48;5.88;;;1.15;;
44169;SDS011;29836;52.286;9.576;2023-04-25T11:26:14;6.55;;;1.10;;
44169;SDS011;29836;52.286;9.576;2023-04-25T11:28:40;7.35;;;1.00;;
44169;SDS011;29836;52.286;9.576;2023-04-25T11:31:09;5.07;;;1.50;;
44169;SDS011;29836;52.286;9.576;2023-04-25T11:33:35;3.50;;;1.10;;
44169;SDS011;29836;52.286;9.576;2023-04-25T11:36:00;2.47;;;1.10;;
44169;SDS011;29836;52.286;9.576;2023-04-25T11:38:26;9.98;;;1.92;;
44169;SDS011;29836;52.286;9.576;2023-04-25T11:40:52;7.72;;;1.75;;
44169;SDS011;29836;52.286;9.576;2023-04-25T11:43:22;2.95;;;0.82;;
44169;SDS011;29836;52.286;9.576;2023-04-25T11:45:48;3.95;;;1.30;;
44169;SDS011;29836;52.286;9.576;2023-04-25T11:48:15;2.58;;;1.60;;
44169;SDS011;29836;52.286;9.576;2023-04-25T11:50:41;3.88;;;1.25;;
44169;SDS011;29836;52.286;9.576;2023-04-25T11:53:07;8.88;;;2.03;;
44169;SDS011;29836;52.286;9.576;2023-04-25T11:55:33;2.17;;;1.17;;
44169;SDS011;29836;52.286;9.576;2023-04-25T11:57:59;2.35;;;1.20;;
44169;SDS011;29836;52.286;9.576;2023-04-25T12:00:26;3.78;;;1.35;;
44169;SDS011;29836;52.286;9.576;2023-04-25T12:02:52;2.40;;;1.05;;
44169;SDS011;29836;52.286;9.576;2023-04-25T12:05:19;5.65;;;1.20;;
44169;SDS011;29836;52.286;9.576;2023-04-25T12:07:48;2.80;;;1.15;;
44169;SDS011;29836;52.286;9.576;2023-04-25T12:10:14;3.25;;;0.80;;
44169;SDS011;29836;52.286;9.576;2023-04-25T12:12:41;7.10;;;0.88;;
44169;SDS011;29836;52.286;9.576;2023-04-25T12:15:14;1.00;;;0.70;;
44169;SDS011;29836;52.286;9.576;2023-04-25T12:17:47;2.80;;;1.00;;
44169;SDS011;29836;52.286;9.576;2023-04-25T12:20:14;2.75;;;1.00;;
44169;SDS011;29836;52.286;9.576;2023-04-25T12:22:43;3.63;;;0.70;;
44169;SDS011;29836;52.286;9.576;2023-04-25T12:25:13;2.13;;;0.73;;
44169;SDS011;29836;52.286;9.576;2023-04-25T12:31:04;3.08;;;0.68;;
44169;SDS011;29836;52.286;9.576;2023-04-25T12:33:31;2.50;;;0.80;;
44169;SDS011;29836;52.286;9.576;2023-04-25T12:36:03;2.45;;;0.73;;
44169;SDS011;29836;52.286;9.576;2023-04-25T12:38:36;1.40;;;0.60;;
44169;SDS011;29836;52.286;9.576;2023-04-25T12:41:02;2.72;;;1.13;;
44169;SDS011;29836;52.286;9.576;2023-04-25T12:43:28;0.73;;;0.63;;
44169;SDS011;29836;52.286;9.576;2023-04-25T12:45:53;3.53;;;0.70;;
44169;SDS011;29836;52.286;9.576;2023-04-25T12:48:20;1.60;;;0.90;;
44169;SDS011;29836;52.286;9.576;2023-04-25T12:50:46;3.13;;;1.20;;
44169;SDS011;29836;52.286;9.576;2023-04-25T12:53:14;1.77;;;1.17;;
44169;SDS011;29836;52.286;9.576;2023-04-25T12:55:40;3.13;;;1.02;;
44169;SDS011;29836;52.286;9.576;2023-04-25T12:58:06;3.15;;;0.85;;
44169;SDS011;29836;52.286;9.576;2023-04-25T13:00:32;2.55;;;1.08;;
44169;SDS011;29836;52.286;9.576;2023-04-25T13:02:58;3.40;;;1.20;;
44169;SDS011;29836;52.286;9.576;2023-04-25T13:05:24;1.58;;;0.90;;
44169;SDS011;29836;52.286;9.576;2023-04-25T13:07:50;1.48;;;0.85;;
44169;SDS011;29836;52.286;9.576;2023-04-25T13:10:16;2.22;;;1.25;;
44169;SDS011;29836;52.286;9.576;2023-04-25T13:12:42;3.45;;;1.13;;
44169;SDS011;29836;52.286;9.576;2023-04-25T13:15:08;2.88;;;1.02;;
44169;SDS011;29836;52.286;9.576;2023-04-25T13:17:36;4.43;;;1.10;;
44169;SDS011;29836;52.286;9.576;2023-04-25T13:20:02;1.48;;;0.95;;
44169;SDS011;29836;52.286;9.576;2023-04-25T13:22:31;1.38;;;1.08;;
44169;SDS011;29836;52.286;9.576;2023-04-25T13:24:56;1.65;;;0.88;;
44169;SDS011;29836;52.286;9.576;2023-04-25T13:27:22;2.10;;;1.00;;
44169;SDS011;29836;52.286;9.576;2023-04-25T13:29:47;3.85;;;1.42;;
44169;SDS011;29836;52.286;9.576;2023-04-25T13:32:13;3.42;;;1.15;;
44169;SDS011;29836;52.286;9.576;2023-04-25T13:34:38;1.92;;;0.90;;
44169;SDS011;29836;52.286;9.576;2023-04-25T13:37:04;2.50;;;0.80;;
44169;SDS011;29836;52.286;9.576;2023-04-25T13:39:30;2.20;;;0.80;;
44169;SDS011;29836;52.286;9.576;2023-04-25T13:41:55;2.22;;;1.00;;
44169;SDS011;29836;52.286;9.576;2023-04-25T13:44:21;5.05;;;1.10;;
44169;SDS011;29836;52.286;9.576;2023-04-25T13:46:46;2.53;;;0.90;;
44169;SDS011;29836;52.286;9.576;2023-04-25T13:49:12;2.40;;;0.90;;
44169;SDS011;29836;52.286;9.576;2023-04-25T13:51:38;3.53;;;1.13;;
44169;SDS011;29836;52.286;9.576;2023-04-25T13:54:03;5.03;;;1.30;;
44169;SDS011;29836;52.286;9.576;2023-04-25T13:56:29;4.97;;;1.17;;
44169;SDS011;29836;52.286;9.576;2023-04-25T13:58:55;3.80;;;1.35;;
44169;SDS011;29836;52.286;9.576;2023-04-25T14:01:21;2.60;;;0.77;;
44169;SDS011;29836;52.286;9.576;2023-04-25T14:03:47;1.95;;;0.88;;
44169;SDS011;29836;52.286;9.576;2023-04-25T14:06:12;2.55;;;1.08;;
44169;SDS011;29836;52.286;9.576;2023-04-25T14:08:38;2.40;;;1.05;;
44169;SDS011;29836;52.286;9.576;2023-04-25T14:11:04;3.20;;;1.05;;
44169;SDS011;29836;52.286;9.576;2023-04-25T14:13:30;3.53;;;0.90;;
44169;SDS011;29836;52.286;9.576;2023-04-25T14:15:56;1.90;;;1.00;;
44169;SDS011;29836;52.286;9.576;2023-04-25T14:18:21;2.78;;;1.17;;
44169;SDS011;29836;52.286;9.576;2023-04-25T14:20:47;4.88;;;0.93;;
44169;SDS011;29836;52.286;9.576;2023-04-25T14:23:13;7.00;;;1.45;;
44169;SDS011;29836;52.286;9.576;2023-04-25T14:25:38;5.88;;;1.15;;
44169;SDS011;29836;52.286;9.576;2023-04-25T14:28:05;3.28;;;1.40;;
44169;SDS011;29836;52.286;9.576;2023-04-25T14:30:31;4.15;;;1.30;;
44169;SDS011;29836;52.286;9.576;2023-04-25T14:32:56;2.58;;;0.95;;
44169;SDS011;29836;52.286;9.576;2023-04-25T14:35:22;4.72;;;0.90;;
44169;SDS011;29836;52.286;9.576;2023-04-25T14:37:47;2.25;;;0.70;;
44169;SDS011;29836;52.286;9.576;2023-04-25T14:40:13;3.25;;;1.13;;
44169;SDS011;29836;52.286;9.576;2023-04-25T14:42:40;4.50;;;1.00;;
44169;SDS011;29836;52.286;9.576;2023-04-25T14:45:06;1.65;;;0.90;;
44169;SDS011;29836;52.286;9.576;2023-04-25T14:47:36;3.15;;;1.05;;
44169;SDS011;29836;52.286;9.576;2023-04-25T14:50:02;2.35;;;1.00;;